Adriatic Sea — WDB5553 — position and weather

sailwx.info

Track history (hours):
 
Tides and Currents Weather Stations Pressure Air Temp Water Temp Dewpoint Dewpoint Depression Visibility Wind Speed Wind Dir Waves Ship Positions

Adriatic Sea

Owner: Kirby Offshore Marine, LLC, Seattle, WA. More information available from US FCC via Universal Licensing System and Coast Guard Vessel Documentation Center.

Last reported at 2015-Jan-30 16:33 UTC. Time now 2015-Jan-30 16:59 UTC.
Position N 48°08' W 123°26'.

Length 42 m; draft 5.3 m.

Type: Tug. MMSI: 366910890.

Date/timePositionNaut miles runAvg speedWind from/ knotsBaromVisibWave heightAir tempDewpointWater temp
2015-Jan-30 16:33N 48°08' W 123°26'0 0.0
2015-Jan-30 15:33N 48°08' W 123°26'0 0.0
2015-Jan-30 14:27N 48°08' W 123°26'0 0.0
2015-Jan-30 13:33N 48°08' W 123°26'0 0.0
2015-Jan-30 12:33N 48°08' W 123°26'0 0.0
2015-Jan-30 11:33N 48°08' W 123°26'0 0.0
2015-Jan-30 10:33N 48°08' W 123°26'0 0.0
2015-Jan-30 09:33N 48°08' W 123°26'0 0.0
2015-Jan-30 08:33N 48°08' W 123°26'0 0.0
2015-Jan-30 07:33N 48°08' W 123°26'0 0.0
2015-Jan-30 06:33N 48°08' W 123°26'0 0.0
2015-Jan-30 05:33N 48°08' W 123°26'0 0.0
2015-Jan-30 04:33N 48°08' W 123°26'0 0.0
2015-Jan-30 03:33N 48°08' W 123°26'0 0.0
2015-Jan-30 02:33N 48°08' W 123°26'0 0.0
2015-Jan-30 01:33N 48°08' W 123°26'0 0.0
2015-Jan-30 00:32N 48°08' W 123°26'0 0.0
2015-Jan-29 23:32N 48°08' W 123°26'0 0.0
2015-Jan-29 22:32N 48°08' W 123°26'0 0.1
2015-Jan-29 22:29N 48°08' W 123°26'0 0.0
2015-Jan-29 21:29N 48°08' W 123°26'0 0.0
2015-Jan-29 20:32N 48°08' W 123°26'0 0.0
2015-Jan-29 19:47N 48°08' W 123°26'0 0.0
2015-Jan-29 19:32N 48°08' W 123°26'0 0.1
2015-Jan-29 19:26N 48°08' W 123°26'0 0.0
2015-Jan-29 18:32N 48°08' W 123°26'0 0.0
2015-Jan-29 17:32N 48°08' W 123°26'0 0.0
2015-Jan-29 16:32N 48°08' W 123°26'0 0.0
2015-Jan-29 15:47N 48°08' W 123°26'0 0.0
2015-Jan-29 15:32N 48°08' W 123°26'0 0.0
2015-Jan-29 14:29N 48°08' W 123°26'0 0.0
2015-Jan-29 13:29N 48°08' W 123°26'0 0.0
2015-Jan-29 12:29N 48°08' W 123°26'0 0.0
2015-Jan-29 11:29N 48°08' W 123°26'0 0.0
2015-Jan-29 11:11N 48°08' W 123°26'0 0.0
2015-Jan-29 10:29N 48°08' W 123°26'0 0.0
2015-Jan-29 09:35N 48°08' W 123°26'0 0.0
2015-Jan-29 09:29N 48°08' W 123°26'0 0.0
2015-Jan-29 08:29N 48°08' W 123°26'0 0.0
2015-Jan-29 08:20N 48°08' W 123°26'0 0.0
2015-Jan-29 07:29N 48°08' W 123°26'0 0.0
2015-Jan-29 06:23N 48°08' W 123°26'0 0.0
2015-Jan-29 05:32N 48°08' W 123°26'0 0.0
2015-Jan-29 04:29N 48°08' W 123°26'0 0.0
2015-Jan-29 03:29N 48°08' W 123°26'0 0.0
2015-Jan-29 02:59N 48°08' W 123°26'0 0.0
2015-Jan-29 02:32N 48°08' W 123°26'0 0.0
2015-Jan-29 01:33N 48°08' W 123°26'0 0.5
2015-Jan-29 00:33N 48°08' W 123°26'3 2.7
2015-Jan-28 23:34N 48°10' W 123°27'0 5.4
2015-Jan-28 23:33N 48°10' W 123°27'5 5.2
2015-Jan-28 22:32N 48°11' W 123°35'0 6.1
2015-Jan-28 22:29N 48°11' W 123°36'6 7.0
2015-Jan-28 21:33N 48°12' W 123°45'7 6.7
2015-Jan-28 20:33N 48°13' W 123°55'7 7.1
2015-Jan-28 19:33N 48°16' W 124°05'8 7.6
2015-Jan-28 18:33N 48°19' W 124°15'8 7.7
2015-Jan-28 17:33N 48°22' W 124°26'8 7.8
2015-Jan-28 16:33N 48°25' W 124°36'7 6.7
2015-Jan-28 15:33N 48°27' W 124°46'7 6.7
2015-Jan-28 14:33N 48°25' W 124°56'  
2015-Jan-25 01:33N 38°57' W 124°18'7 6.5
2015-Jan-25 00:32N 38°52' W 124°12'7 6.3
2015-Jan-24 23:22N 38°47' W 124°06'5 6.3
2015-Jan-24 22:31N 38°43' W 124°01'19 6.2
2015-Jan-24 19:31N 38°30' W 123°45'7 6.8
2015-Jan-24 18:33N 38°25' W 123°39'7 6.7
2015-Jan-24 17:33N 38°20' W 123°33'7 6.9
2015-Jan-24 16:33N 38°15' W 123°27'7 6.8
2015-Jan-24 15:33N 38°10' W 123°21'7 6.7
2015-Jan-24 14:33N 38°05' W 123°16'7 6.8
2015-Jan-24 13:33N 37°60' W 123°10'7 6.9
2015-Jan-24 12:33N 37°56' W 123°03'7 7.1
2015-Jan-24 11:33N 37°53' W 122°55'7 7.0
2015-Jan-24 10:33N 37°49' W 122°47'7 6.9
2015-Jan-24 09:33N 37°46' W 122°39'6 6.2
2015-Jan-24 08:33N 37°48' W 122°32'5 5.2
2015-Jan-24 07:33N 37°50' W 122°26'6 5.6
2015-Jan-24 06:33N 37°46' W 122°21'2 1.8
2015-Jan-24 05:33N 37°45' W 122°19'0 0.1
2015-Jan-24 04:31N 37°45' W 122°19'0 0.0
2015-Jan-24 03:31N 37°45' W 122°19'0 0.0
2015-Jan-24 02:31N 37°45' W 122°19'0 0.0
2015-Jan-24 01:31N 37°45' W 122°19'0 0.0
2015-Jan-24 00:28N 37°45' W 122°19'0 0.2
2015-Jan-23 23:33N 37°45' W 122°19'6 5.6
2015-Jan-23 22:33N 37°50' W 122°24'6 6.0
2015-Jan-23 21:33N 37°55' W 122°27'6 6.2
2015-Jan-23 20:33N 38°01' W 122°23'7 6.2
2015-Jan-23 19:28N 38°03' W 122°16'0 0.0
2015-Jan-23 18:28N 38°03' W 122°16'0 0.0
2015-Jan-23 17:28N 38°03' W 122°16'0 0.0
2015-Jan-23 16:28N 38°03' W 122°16'0 0.0
2015-Jan-23 15:28N 38°03' W 122°16'0 0.0
2015-Jan-23 14:22N 38°03' W 122°16'0 0.0
2015-Jan-23 08:16N 38°03' W 122°16'0 0.1
2015-Jan-23 07:22N 38°03' W 122°16'0 0.0
2015-Jan-23 05:28N 38°03' W 122°16'0 0.0
2015-Jan-23 04:28N 38°03' W 122°16'0 0.0
2015-Jan-23 01:22N 38°03' W 122°16'0 0.0
2015-Jan-23 00:28N 38°03' W 122°16'0 0.0
2015-Jan-22 20:33N 38°03' W 122°16'0 0.0
2015-Jan-22 19:33N 38°03' W 122°16'0 0.0
2015-Jan-22 18:15N 38°03' W 122°16'0 0.1
2015-Jan-22 17:33N 38°03' W 122°16'0 0.0
2015-Jan-22 16:27N 38°03' W 122°16'0 0.1
2015-Jan-22 15:33N 38°03' W 122°16'0 0.0
2015-Jan-22 12:33N 38°03' W 122°16'0 0.1
2015-Jan-22 11:32N 38°04' W 122°16'3 3.3
2015-Jan-22 10:34N 38°03' W 122°20'4 4.1
2015-Jan-22 09:34N 38°01' W 122°24'4 4.1
2015-Jan-22 08:33N 37°57' W 122°27'5 4.8
2015-Jan-22 07:33N 37°52' W 122°25'3 3.2
2015-Jan-22 06:33N 37°49' W 122°26'7 6.9
2015-Jan-22 05:33N 37°47' W 122°34'5 5.2
2015-Jan-22 04:33N 37°46' W 122°41'5 4.8
2015-Jan-22 03:33N 37°47' W 122°47'5 4.8
2015-Jan-22 02:33N 37°49' W 122°52'5 4.6
2015-Jan-22 01:33N 37°51' W 122°57'5 4.9
2015-Jan-22 00:33N 37°54' W 123°03'5 4.9
2015-Jan-21 23:33N 37°56' W 123°08'3 4.7
2015-Jan-21 22:50N 37°58' W 123°12'0 4.6
2015-Jan-21 22:46N 37°58' W 123°12'1 4.7
2015-Jan-21 22:33N 37°59' W 123°13'5 4.8
2015-Jan-21 21:33N 38°03' W 123°17'5 5.1
2015-Jan-21 20:33N 38°07' W 123°21'5 4.8
2015-Jan-21 19:34N 38°10' W 123°25'5 4.6
2015-Jan-21 18:34N 38°14' W 123°29'3 3.0
2015-Jan-21 17:34N 38°16' W 123°32'4 3.9
2015-Jan-21 16:34N 38°13' W 123°28'5 4.7
2015-Jan-21 15:34N 38°16' W 123°32'5 4.9
2015-Jan-21 14:34N 38°20' W 123°36'5 5.2
2015-Jan-21 13:33N 38°24' W 123°41'5 5.2
2015-Jan-21 12:33N 38°28' W 123°45'5 5.2
2015-Jan-21 11:33N 38°32' W 123°49'  
Track history (hours):
 
Tides and Currents Weather Stations Pressure Air Temp Water Temp Dewpoint Dewpoint Depression Visibility Wind Speed Wind Dir Waves Ship Positions

Adriatic Sea

Owner: Kirby Offshore Marine, LLC, Seattle, WA. More information available from US FCC via Universal Licensing System and Coast Guard Vessel Documentation Center.

Last reported at 2015-Jan-30 16:33 UTC. Time now 2015-Jan-30 16:59 UTC.
Position N 48°08' W 123°26'.

Length 42 m; draft 5.3 m.

Type: Tug. MMSI: 366910890.

Date/timePositionNaut miles runAvg speedWind from/ knotsBaromVisibWave heightAir tempDewpointWater temp
2015-Jan-30 16:33N 48°08' W 123°26'0 0.0
2015-Jan-30 15:33N 48°08' W 123°26'0 0.0
2015-Jan-30 14:27N 48°08' W 123°26'0 0.0
2015-Jan-30 13:33N 48°08' W 123°26'0 0.0
2015-Jan-30 12:33N 48°08' W 123°26'0 0.0
2015-Jan-30 11:33N 48°08' W 123°26'0 0.0
2015-Jan-30 10:33N 48°08' W 123°26'0 0.0
2015-Jan-30 09:33N 48°08' W 123°26'0 0.0
2015-Jan-30 08:33N 48°08' W 123°26'0 0.0
2015-Jan-30 07:33N 48°08' W 123°26'0 0.0
2015-Jan-30 06:33N 48°08' W 123°26'0 0.0
2015-Jan-30 05:33N 48°08' W 123°26'0 0.0
2015-Jan-30 04:33N 48°08' W 123°26'0 0.0
2015-Jan-30 03:33N 48°08' W 123°26'0 0.0
2015-Jan-30 02:33N 48°08' W 123°26'0 0.0
2015-Jan-30 01:33N 48°08' W 123°26'0 0.0
2015-Jan-30 00:32N 48°08' W 123°26'0 0.0
2015-Jan-29 23:32N 48°08' W 123°26'0 0.0
2015-Jan-29 22:32N 48°08' W 123°26'0 0.1
2015-Jan-29 22:29N 48°08' W 123°26'0 0.0
2015-Jan-29 21:29N 48°08' W 123°26'0 0.0
2015-Jan-29 20:32N 48°08' W 123°26'0 0.0
2015-Jan-29 19:47N 48°08' W 123°26'0 0.0
2015-Jan-29 19:32N 48°08' W 123°26'0 0.1
2015-Jan-29 19:26N 48°08' W 123°26'0 0.0
2015-Jan-29 18:32N 48°08' W 123°26'0 0.0
2015-Jan-29 17:32N 48°08' W 123°26'0 0.0
2015-Jan-29 16:32N 48°08' W 123°26'0 0.0
2015-Jan-29 15:47N 48°08' W 123°26'0 0.0
2015-Jan-29 15:32N 48°08' W 123°26'0 0.0
2015-Jan-29 14:29N 48°08' W 123°26'0 0.0
2015-Jan-29 13:29N 48°08' W 123°26'0 0.0
2015-Jan-29 12:29N 48°08' W 123°26'0 0.0
2015-Jan-29 11:29N 48°08' W 123°26'0 0.0
2015-Jan-29 11:11N 48°08' W 123°26'0 0.0
2015-Jan-29 10:29N 48°08' W 123°26'0 0.0
2015-Jan-29 09:35N 48°08' W 123°26'0 0.0
2015-Jan-29 09:29N 48°08' W 123°26'0 0.0
2015-Jan-29 08:29N 48°08' W 123°26'0 0.0
2015-Jan-29 08:20N 48°08' W 123°26'0 0.0
2015-Jan-29 07:29N 48°08' W 123°26'0 0.0
2015-Jan-29 06:23N 48°08' W 123°26'0 0.0
2015-Jan-29 05:32N 48°08' W 123°26'0 0.0
2015-Jan-29 04:29N 48°08' W 123°26'0 0.0
2015-Jan-29 03:29N 48°08' W 123°26'0 0.0
2015-Jan-29 02:59N 48°08' W 123°26'0 0.0
2015-Jan-29 02:32N 48°08' W 123°26'0 0.0
2015-Jan-29 01:33N 48°08' W 123°26'0 0.5
2015-Jan-29 00:33N 48°08' W 123°26'3 2.7
2015-Jan-28 23:34N 48°10' W 123°27'0 5.4
2015-Jan-28 23:33N 48°10' W 123°27'5 5.2
2015-Jan-28 22:32N 48°11' W 123°35'0 6.1
2015-Jan-28 22:29N 48°11' W 123°36'6 7.0
2015-Jan-28 21:33N 48°12' W 123°45'7 6.7
2015-Jan-28 20:33N 48°13' W 123°55'7 7.1
2015-Jan-28 19:33N 48°16' W 124°05'8 7.6
2015-Jan-28 18:33N 48°19' W 124°15'8 7.7
2015-Jan-28 17:33N 48°22' W 124°26'8 7.8
2015-Jan-28 16:33N 48°25' W 124°36'7 6.7
2015-Jan-28 15:33N 48°27' W 124°46'7 6.7
2015-Jan-28 14:33N 48°25' W 124°56'  
2015-Jan-25 01:33N 38°57' W 124°18'7 6.5
2015-Jan-25 00:32N 38°52' W 124°12'7 6.3
2015-Jan-24 23:22N 38°47' W 124°06'5 6.3
2015-Jan-24 22:31N 38°43' W 124°01'19 6.2
2015-Jan-24 19:31N 38°30' W 123°45'7 6.8
2015-Jan-24 18:33N 38°25' W 123°39'7 6.7
2015-Jan-24 17:33N 38°20' W 123°33'7 6.9
2015-Jan-24 16:33N 38°15' W 123°27'7 6.8
2015-Jan-24 15:33N 38°10' W 123°21'7 6.7
2015-Jan-24 14:33N 38°05' W 123°16'7 6.8
2015-Jan-24 13:33N 37°60' W 123°10'7 6.9
2015-Jan-24 12:33N 37°56' W 123°03'7 7.1
2015-Jan-24 11:33N 37°53' W 122°55'7 7.0
2015-Jan-24 10:33N 37°49' W 122°47'7 6.9
2015-Jan-24 09:33N 37°46' W 122°39'6 6.2
2015-Jan-24 08:33N 37°48' W 122°32'5 5.2
2015-Jan-24 07:33N 37°50' W 122°26'6 5.6
2015-Jan-24 06:33N 37°46' W 122°21'2 1.8
2015-Jan-24 05:33N 37°45' W 122°19'0 0.1
2015-Jan-24 04:31N 37°45' W 122°19'0 0.0
2015-Jan-24 03:31N 37°45' W 122°19'0 0.0
2015-Jan-24 02:31N 37°45' W 122°19'0 0.0
2015-Jan-24 01:31N 37°45' W 122°19'0 0.0
2015-Jan-24 00:28N 37°45' W 122°19'0 0.2
2015-Jan-23 23:33N 37°45' W 122°19'6 5.6
2015-Jan-23 22:33N 37°50' W 122°24'6 6.0
2015-Jan-23 21:33N 37°55' W 122°27'6 6.2
2015-Jan-23 20:33N 38°01' W 122°23'7 6.2
2015-Jan-23 19:28N 38°03' W 122°16'0 0.0
2015-Jan-23 18:28N 38°03' W 122°16'0 0.0
2015-Jan-23 17:28N 38°03' W 122°16'0 0.0
2015-Jan-23 16:28N 38°03' W 122°16'0 0.0
2015-Jan-23 15:28N 38°03' W 122°16'0 0.0
2015-Jan-23 14:22N 38°03' W 122°16'0 0.0
2015-Jan-23 08:16N 38°03' W 122°16'0 0.1
2015-Jan-23 07:22N 38°03' W 122°16'0 0.0
2015-Jan-23 05:28N 38°03' W 122°16'0 0.0
2015-Jan-23 04:28N 38°03' W 122°16'0 0.0
2015-Jan-23 01:22N 38°03' W 122°16'0 0.0
2015-Jan-23 00:28N 38°03' W 122°16'0 0.0
2015-Jan-22 20:33N 38°03' W 122°16'0 0.0
2015-Jan-22 19:33N 38°03' W 122°16'0 0.0
2015-Jan-22 18:15N 38°03' W 122°16'0 0.1
2015-Jan-22 17:33N 38°03' W 122°16'0 0.0
2015-Jan-22 16:27N 38°03' W 122°16'0 0.1
2015-Jan-22 15:33N 38°03' W 122°16'0 0.0
2015-Jan-22 12:33N 38°03' W 122°16'0 0.1
2015-Jan-22 11:32N 38°04' W 122°16'3 3.3
2015-Jan-22 10:34N 38°03' W 122°20'4 4.1
2015-Jan-22 09:34N 38°01' W 122°24'4 4.1
2015-Jan-22 08:33N 37°57' W 122°27'5 4.8
2015-Jan-22 07:33N 37°52' W 122°25'3 3.2
2015-Jan-22 06:33N 37°49' W 122°26'7 6.9
2015-Jan-22 05:33N 37°47' W 122°34'5 5.2
2015-Jan-22 04:33N 37°46' W 122°41'5 4.8
2015-Jan-22 03:33N 37°47' W 122°47'5 4.8
2015-Jan-22 02:33N 37°49' W 122°52'5 4.6
2015-Jan-22 01:33N 37°51' W 122°57'5 4.9
2015-Jan-22 00:33N 37°54' W 123°03'5 4.9
2015-Jan-21 23:33N 37°56' W 123°08'3 4.7
2015-Jan-21 22:50N 37°58' W 123°12'0 4.6
2015-Jan-21 22:46N 37°58' W 123°12'1 4.7
2015-Jan-21 22:33N 37°59' W 123°13'5 4.8
2015-Jan-21 21:33N 38°03' W 123°17'5 5.1
2015-Jan-21 20:33N 38°07' W 123°21'5 4.8
2015-Jan-21 19:34N 38°10' W 123°25'5 4.6
2015-Jan-21 18:34N 38°14' W 123°29'3 3.0
2015-Jan-21 17:34N 38°16' W 123°32'4 3.9
2015-Jan-21 16:34N 38°13' W 123°28'5 4.7
2015-Jan-21 15:34N 38°16' W 123°32'5 4.9
2015-Jan-21 14:34N 38°20' W 123°36'5 5.2
2015-Jan-21 13:33N 38°24' W 123°41'5 5.2
2015-Jan-21 12:33N 38°28' W 123°45'5 5.2
2015-Jan-21 11:33N 38°32' W 123°49'  

Dump ship's entire track history